This is the latest recevied weather packets stored in our database for station/object K4OAM-13. If no packets are shown the sender has not sent any weather packets the latest 10 day(s).
| Time | Temp. | Humidity | Pressure | Rain* | Wind** | Luminosity | Snow |
|---|---|---|---|---|---|---|---|
| 1777668178 | 5.56° C | 62% | 1023.2 hPa | - | - | - | - |
| 1777667578 | 6.11° C | 60% | 1023 hPa | - | - | - | - |
| 1777666078 | 6.11° C | 61% | 1022.6 hPa | - | - | - | - |
| 1777665479 | 5.56° C | 62% | 1022.5 hPa | - | - | - | - |
| 1777664279 | 6.11° C | 61% | 1021.8 hPa | - | - | - | - |
| 1777663378 | 6.11° C | 60% | 1021.7 hPa | - | - | - | - |
| 1777662526 | 6.67° C | 58% | 1021.3 hPa | - | - | - | - |
| 1777659783 | 6.67° C | 57% | 1020.4 hPa | - | - | - | - |
| 1777658878 | 7.78° C | 55% | 1020 hPa | - | - | - | - |
| 1777655878 | 7.78° C | 54% | 1019.3 hPa | - | - | - | - |
| 1777654978 | 7.22° C | 57% | 1019.3 hPa | - | - | - | - |
| 1777654379 | 7.22° C | 56% | 1019.2 hPa | - | - | - | - |
| 1777653178 | 7.22° C | 57% | 1019.2 hPa | - | - | - | - |
| 1777652894 | 6.67° C | 57% | 1019.2 hPa | - | - | - | - |
| 1777652278 | 7.22° C | 58% | 1019.1 hPa | - | - | - | - |
| 1777650195 | 6.11° C | 62% | 1019.2 hPa | - | - | - | - |
| 1777648978 | 5.56° C | 68% | 1018.9 hPa | - | - | - | - |
| 1777646878 | 5.56° C | 73% | 1018.3 hPa | - | - | - | - |
| 1777644178 | 5.56° C | 71% | 1017.8 hPa | - | - | - | - |
| 1777643278 | 5.56° C | 72% | 1017.6 hPa | - | - | - | - |
| 1777640578 | 4.44° C | 72% | 1017.2 hPa | - | - | - | - |
| 1777639678 | 3.89° C | 78% | 1016.9 hPa | - | - | - | - |
| 1777638478 | 3.33° C | 79% | 1016.4 hPa | - | - | - | - |
| 1777637894 | 3.33° C | 81% | 1016.3 hPa | - | - | - | - |
| 1777636978 | 2.78° C | 80% | 1016.2 hPa | - | - | - | - |
* Rain since midnight (hover to see other rain measurements)
** Current wind speed in m/s (hover to see current wind gust speed)